Sebastopol, Texas
Current Conditions -  °F | °C
As of 2:55 PM on Thursday 18 Dec 2014 (Local Time) from KDKR Reporting Station
Broken Clouds Broken Clouds  
Wind Chill: 14°   Ceiling: 800
Heat Index: 14°   Visibility: NA
Dew Point: 13°   Wind: 6mph
Humidity: 94%   Direction: 30°NNE
Pressure: 30.1"   Gusts: NA
Location:  30.9905°N, 95.3368°W
Report Text: KDKR 182055Z AUTO 03005KT BKN008 BKN013 14/13 A3010 RMK AO2
Loading
Personal Weather Stations






























Interactive Weather Map New forecast layout! Learn more

10-Day Weather Forecast

Advertisements
Track Severe Weather on mobile